Loiza Street, Puerto Rico
Current Conditions -  °F | °C
As of 8:56 PM on Saturday 20 Dec 2014 (Local Time) from TJSJ Reporting Station
Few Clouds Few Clouds  
Wind Chill: 79°   Ceiling: Unl
Heat Index: 82°   Visibility: 10mi
Dew Point: 72°   Wind: 7mph
Humidity: 79%   Direction: 100°E
Pressure: 30.06"   Gusts: NA
Location:  18.3829°N, 66.0647°W
Report Text: TJSJ 210056Z 10006KT 10SM FEW024 26/22 A3006 RMK AO2 SLP177 T02610222
Loading
Personal Weather Stations






























Interactive Weather Map New forecast layout! Learn more

10-Day Weather Forecast

Advertisements
Track Severe Weather on mobile